sensor_id;sensor_type;location;lat;lon;timestamp;temperature;humidity
1524;DHT22;755;53.658;10.118;2022-12-01T00:08:38;4.30;99.90
1524;DHT22;755;53.658;10.118;2022-12-01T00:18:40;4.20;99.90
1524;DHT22;755;53.658;10.118;2022-12-01T00:28:45;4.20;99.90
1524;DHT22;755;53.658;10.118;2022-12-01T00:38:51;4.20;99.90
1524;DHT22;755;53.658;10.118;2022-12-01T00:48:54;4.30;99.90
1524;DHT22;755;53.658;10.118;2022-12-01T00:58:56;4.30;99.90
1524;DHT22;755;53.658;10.118;2022-12-01T01:09:00;4.20;99.90
1524;DHT22;755;53.658;10.118;2022-12-01T01:19:02;4.30;99.90
1524;DHT22;755;53.658;10.118;2022-12-01T01:29:06;4.20;99.90
1524;DHT22;755;53.658;10.118;2022-12-01T01:39:08;4.10;99.90
1524;DHT22;755;53.658;10.118;2022-12-01T01:49:12;4.10;99.90
1524;DHT22;755;53.658;10.118;2022-12-01T01:59:18;4.10;99.90
1524;DHT22;755;53.658;10.118;2022-12-01T02:09:23;4.10;99.90
1524;DHT22;755;53.658;10.118;2022-12-01T02:19:43;4.00;99.90
1524;DHT22;755;53.658;10.118;2022-12-01T02:30:03;4.10;99.90
1524;DHT22;755;53.658;10.118;2022-12-01T02:40:13;4.10;99.90
1524;DHT22;755;53.658;10.118;2022-12-01T02:50:17;4.00;99.90
1524;DHT22;755;53.658;10.118;2022-12-01T03:00:20;3.90;99.90
1524;DHT22;755;53.658;10.118;2022-12-01T03:10:25;3.90;99.90
1524;DHT22;755;53.658;10.118;2022-12-01T03:20:33;3.90;99.90
1524;DHT22;755;53.658;10.118;2022-12-01T03:30:36;3.80;99.90
1524;DHT22;755;53.658;10.118;2022-12-01T03:40:41;3.80;99.90
1524;DHT22;755;53.658;10.118;2022-12-01T03:50:48;3.80;99.90
1524;DHT22;755;53.658;10.118;2022-12-01T04:00:54;3.80;99.90
1524;DHT22;755;53.658;10.118;2022-12-01T04:10:58;4.00;99.90
1524;DHT22;755;53.658;10.118;2022-12-01T04:21:01;3.80;99.90
1524;DHT22;755;53.658;10.118;2022-12-01T04:31:03;3.70;99.90
1524;DHT22;755;53.658;10.118;2022-12-01T04:41:11;3.80;99.90
1524;DHT22;755;53.658;10.118;2022-12-01T04:51:14;3.80;99.90
1524;DHT22;755;53.658;10.118;2022-12-01T05:01:17;3.80;99.90
1524;DHT22;755;53.658;10.118;2022-12-01T05:11:20;3.70;99.90
1524;DHT22;755;53.658;10.118;2022-12-01T05:21:23;3.70;99.90
1524;DHT22;755;53.658;10.118;2022-12-01T05:31:25;3.70;99.90
1524;DHT22;755;53.658;10.118;2022-12-01T05:41:28;3.70;99.90
1524;DHT22;755;53.658;10.118;2022-12-01T05:51:30;3.70;99.90
1524;DHT22;755;53.658;10.118;2022-12-01T06:01:33;3.70;99.90
1524;DHT22;755;53.658;10.118;2022-12-01T06:11:35;3.60;99.90
1524;DHT22;755;53.658;10.118;2022-12-01T06:21:39;3.70;99.90
1524;DHT22;755;53.658;10.118;2022-12-01T06:31:41;3.60;99.90
1524;DHT22;755;53.658;10.118;2022-12-01T06:41:44;3.60;99.90
1524;DHT22;755;53.658;10.118;2022-12-01T06:51:48;3.60;99.90
1524;DHT22;755;53.658;10.118;2022-12-01T07:01:51;3.50;99.90
1524;DHT22;755;53.658;10.118;2022-12-01T07:11:53;3.40;99.90
1524;DHT22;755;53.658;10.118;2022-12-01T07:21:57;3.40;99.90
1524;DHT22;755;53.658;10.118;2022-12-01T07:31:59;3.30;99.90
1524;DHT22;755;53.658;10.118;2022-12-01T07:42:03;3.30;99.90
1524;DHT22;755;53.658;10.118;2022-12-01T07:52:05;3.20;99.90
1524;DHT22;755;53.658;10.118;2022-12-01T08:02:09;3.30;99.90
1524;DHT22;755;53.658;10.118;2022-12-01T08:12:11;3.30;99.90
1524;DHT22;755;53.658;10.118;2022-12-01T08:22:14;3.20;99.90
1524;DHT22;755;53.658;10.118;2022-12-01T08:32:16;3.30;99.90
1524;DHT22;755;53.658;10.118;2022-12-01T08:42:20;3.30;99.90
1524;DHT22;755;53.658;10.118;2022-12-01T08:52:22;3.40;99.90
1524;DHT22;755;53.658;10.118;2022-12-01T09:02:25;3.30;99.90
1524;DHT22;755;53.658;10.118;2022-12-01T09:12:28;3.30;99.90
1524;DHT22;755;53.658;10.118;2022-12-01T09:22:32;3.30;99.90
1524;DHT22;755;53.658;10.118;2022-12-01T09:32:34;3.40;99.90
1524;DHT22;755;53.658;10.118;2022-12-01T09:42:38;3.40;99.90
1524;DHT22;755;53.658;10.118;2022-12-01T09:52:43;3.40;99.90
1524;DHT22;755;53.658;10.118;2022-12-01T10:02:52;3.30;99.90
1524;DHT22;755;53.658;10.118;2022-12-01T10:12:57;3.10;99.90
1524;DHT22;755;53.658;10.118;2022-12-01T10:23:28;3.10;99.90
1524;DHT22;755;53.658;10.118;2022-12-01T10:33:36;3.00;99.90
1524;DHT22;755;53.658;10.118;2022-12-01T10:43:46;3.00;99.90
1524;DHT22;755;53.658;10.118;2022-12-01T10:53:48;3.00;99.90
1524;DHT22;755;53.658;10.118;2022-12-01T11:03:55;2.80;99.90
1524;DHT22;755;53.658;10.118;2022-12-01T11:13:59;2.80;99.90
1524;DHT22;755;53.658;10.118;2022-12-01T11:24:23;2.70;99.90
1524;DHT22;755;53.658;10.118;2022-12-01T11:34:29;2.70;99.90
1524;DHT22;755;53.658;10.118;2022-12-01T11:44:35;2.80;99.90
1524;DHT22;755;53.658;10.118;2022-12-01T11:54:40;2.80;99.90
1524;DHT22;755;53.658;10.118;2022-12-01T12:05:25;2.80;99.90
1524;DHT22;755;53.658;10.118;2022-12-01T12:15:46;3.00;99.90
1524;DHT22;755;53.658;10.118;2022-12-01T12:26:01;2.80;99.90
1524;DHT22;755;53.658;10.118;2022-12-01T12:36:10;2.80;99.90
1524;DHT22;755;53.658;10.118;2022-12-01T12:46:30;2.80;99.90
1524;DHT22;755;53.658;10.118;2022-12-01T12:56:54;2.70;99.90
1524;DHT22;755;53.658;10.118;2022-12-01T13:07:02;2.50;99.90
1524;DHT22;755;53.658;10.118;2022-12-01T13:17:15;2.40;99.90
1524;DHT22;755;53.658;10.118;2022-12-01T13:27:22;2.40;99.90
1524;DHT22;755;53.658;10.118;2022-12-01T13:37:25;2.30;99.90
1524;DHT22;755;53.658;10.118;2022-12-01T13:47:47;2.30;99.90
1524;DHT22;755;53.658;10.118;2022-12-01T14:08:45;2.30;99.90
1524;DHT22;755;53.658;10.118;2022-12-01T14:18:50;2.30;99.90
1524;DHT22;755;53.658;10.118;2022-12-01T14:29:25;2.40;99.90
1524;DHT22;755;53.658;10.118;2022-12-01T14:39:30;2.50;99.90
1524;DHT22;755;53.658;10.118;2022-12-01T14:49:42;2.60;99.90
1524;DHT22;755;53.658;10.118;2022-12-01T15:00:01;2.50;99.90
1524;DHT22;755;53.658;10.118;2022-12-01T15:10:13;2.50;99.90
1524;DHT22;755;53.658;10.118;2022-12-01T15:20:30;2.50;99.90
1524;DHT22;755;53.658;10.118;2022-12-01T15:30:33;2.90;99.90
1524;DHT22;755;53.658;10.118;2022-12-01T15:40:35;2.70;99.90
1524;DHT22;755;53.658;10.118;2022-12-01T15:50:44;2.80;99.90
1524;DHT22;755;53.658;10.118;2022-12-01T16:00:56;2.90;99.90
1524;DHT22;755;53.658;10.118;2022-12-01T16:11:10;2.70;99.90
1524;DHT22;755;53.658;10.118;2022-12-01T16:21:12;2.60;99.90
1524;DHT22;755;53.658;10.118;2022-12-01T16:31:19;2.80;99.90
1524;DHT22;755;53.658;10.118;2022-12-01T16:41:25;2.70;99.90
1524;DHT22;755;53.658;10.118;2022-12-01T16:51:48;2.60;99.90
1524;DHT22;755;53.658;10.118;2022-12-01T17:01:50;2.60;99.90
1524;DHT22;755;53.658;10.118;2022-12-01T17:11:53;2.60;99.90
1524;DHT22;755;53.658;10.118;2022-12-01T17:22:05;2.50;99.90
1524;DHT22;755;53.658;10.118;2022-12-01T17:32:09;2.50;99.90
1524;DHT22;755;53.658;10.118;2022-12-01T17:42:13;2.30;99.90
1524;DHT22;755;53.658;10.118;2022-12-01T17:52:16;2.30;99.90
1524;DHT22;755;53.658;10.118;2022-12-01T18:02:20;2.10;99.90
1524;DHT22;755;53.658;10.118;2022-12-01T18:12:24;2.30;99.90
1524;DHT22;755;53.658;10.118;2022-12-01T18:22:26;2.50;99.90
1524;DHT22;755;53.658;10.118;2022-12-01T18:32:29;2.50;99.90
1524;DHT22;755;53.658;10.118;2022-12-01T18:42:31;2.30;99.90
1524;DHT22;755;53.658;10.118;2022-12-01T18:52:35;2.40;99.90
1524;DHT22;755;53.658;10.118;2022-12-01T19:02:37;2.40;99.90
1524;DHT22;755;53.658;10.118;2022-12-01T19:12:40;2.40;99.90
1524;DHT22;755;53.658;10.118;2022-12-01T19:22:42;2.40;99.90
1524;DHT22;755;53.658;10.118;2022-12-01T19:32:46;2.20;99.90
1524;DHT22;755;53.658;10.118;2022-12-01T19:42:47;2.00;99.90
1524;DHT22;755;53.658;10.118;2022-12-01T19:52:51;1.90;99.90
1524;DHT22;755;53.658;10.118;2022-12-01T20:02:53;2.20;99.90
1524;DHT22;755;53.658;10.118;2022-12-01T20:12:56;2.20;99.90
1524;DHT22;755;53.658;10.118;2022-12-01T20:22:58;2.20;99.90
1524;DHT22;755;53.658;10.118;2022-12-01T20:33:01;2.00;99.90
1524;DHT22;755;53.658;10.118;2022-12-01T20:43:03;2.20;99.90
1524;DHT22;755;53.658;10.118;2022-12-01T20:53:07;2.20;99.90
1524;DHT22;755;53.658;10.118;2022-12-01T21:03:09;1.90;99.90
1524;DHT22;755;53.658;10.118;2022-12-01T21:13:16;1.70;99.90
1524;DHT22;755;53.658;10.118;2022-12-01T21:23:36;1.90;99.90
1524;DHT22;755;53.658;10.118;2022-12-01T21:33:41;1.90;99.90
1524;DHT22;755;53.658;10.118;2022-12-01T21:43:43;1.80;99.90
1524;DHT22;755;53.658;10.118;2022-12-01T21:53:47;1.80;99.90
1524;DHT22;755;53.658;10.118;2022-12-01T22:03:49;1.50;99.90
1524;DHT22;755;53.658;10.118;2022-12-01T22:13:59;1.50;99.90
1524;DHT22;755;53.658;10.118;2022-12-01T22:24:17;1.50;99.90
1524;DHT22;755;53.658;10.118;2022-12-01T22:34:21;1.30;99.90
1524;DHT22;755;53.658;10.118;2022-12-01T22:44:23;1.30;99.90
1524;DHT22;755;53.658;10.118;2022-12-01T22:54:37;1.30;99.90
1524;DHT22;755;53.658;10.118;2022-12-01T23:04:41;1.40;99.90
1524;DHT22;755;53.658;10.118;2022-12-01T23:14:47;1.40;99.90
1524;DHT22;755;53.658;10.118;2022-12-01T23:24:49;1.40;99.90
1524;DHT22;755;53.658;10.118;2022-12-01T23:34:52;1.30;99.90
1524;DHT22;755;53.658;10.118;2022-12-01T23:44:54;1.30;99.90
1524;DHT22;755;53.658;10.118;2022-12-01T23:54:58;1.30;99.90
